Wemmel, Belgium
Current Conditions -  °F | °C
As of 6:50 PM on Friday 28 Nov 2014 (Local Time) from EBBR Reporting Station
Clear Clear  
Wind Chill: 40°   Ceiling: Unl
Heat Index: 45°   Visibility: 4mi
Dew Point: 41°   Wind: 8mph
Humidity: 87%   Direction: 90°E
Pressure: 29.77"   Gusts: NA
Location:  50.91°N, 4.31°E
Report Text: EBBR 281750Z 09007KT 7000 NSC 07/05 Q1008 NOSIG
Loading
Personal Weather Stations






























Interactive Weather Map New forecast layout! Learn more

10-Day Weather Forecast

Advertisements
Track Severe Weather on mobile